sensor_id;sensor_type;location;lat;lon;timestamp;pressure;altitude;pressure_sealevel;temperature;humidity
43298;BME280;28892;55.640;37.532;2023-11-21T00:01:54;98165.81;;;-4.99;52.34
43298;BME280;28892;55.640;37.532;2023-11-21T00:04:20;98167.91;;;-5.05;52.27
43298;BME280;28892;55.640;37.532;2023-11-21T00:06:47;98172.59;;;-5.10;52.55
43298;BME280;28892;55.640;37.532;2023-11-21T00:09:13;98174.06;;;-4.94;52.45
43298;BME280;28892;55.640;37.532;2023-11-21T00:11:41;98166.28;;;-4.81;52.37
43298;BME280;28892;55.640;37.532;2023-11-21T00:14:07;98154.16;;;-4.81;52.22
43298;BME280;28892;55.640;37.532;2023-11-21T00:16:33;98166.09;;;-4.67;51.97
43298;BME280;28892;55.640;37.532;2023-11-21T00:18:59;98167.53;;;-4.63;51.40
43298;BME280;28892;55.640;37.532;2023-11-21T00:21:25;98172.59;;;-4.61;51.33
43298;BME280;28892;55.640;37.532;2023-11-21T00:23:50;98169.09;;;-4.84;51.89
43298;BME280;28892;55.640;37.532;2023-11-21T00:26:16;98165.22;;;-5.03;51.95
43298;BME280;28892;55.640;37.532;2023-11-21T00:28:46;98166.06;;;-5.02;52.04
43298;BME280;28892;55.640;37.532;2023-11-21T00:31:12;98171.81;;;-5.36;52.10
43298;BME280;28892;55.640;37.532;2023-11-21T00:33:39;98171.66;;;-5.09;52.24
43298;BME280;28892;55.640;37.532;2023-11-21T00:36:05;98172.63;;;-5.23;52.23
43298;BME280;28892;55.640;37.532;2023-11-21T00:38:35;98165.31;;;-5.05;51.98
43298;BME280;28892;55.640;37.532;2023-11-21T00:41:01;98164.50;;;-5.05;51.85
43298;BME280;28892;55.640;37.532;2023-11-21T00:43:28;98163.16;;;-4.98;51.65
43298;BME280;28892;55.640;37.532;2023-11-21T00:45:54;98158.88;;;-5.23;51.94
43298;BME280;28892;55.640;37.532;2023-11-21T00:48:19;98152.38;;;-5.05;51.96
43298;BME280;28892;55.640;37.532;2023-11-21T00:50:45;98154.53;;;-4.98;51.84
43298;BME280;28892;55.640;37.532;2023-11-21T00:53:11;98151.53;;;-4.92;51.46
43298;BME280;28892;55.640;37.532;2023-11-21T00:55:37;98158.03;;;-4.86;51.46
43298;BME280;28892;55.640;37.532;2023-11-21T00:58:05;98154.94;;;-4.92;51.58
43298;BME280;28892;55.640;37.532;2023-11-21T01:00:35;98157.50;;;-4.92;51.64
43298;BME280;28892;55.640;37.532;2023-11-21T01:03:00;98156.56;;;-4.91;51.80
43298;BME280;28892;55.640;37.532;2023-11-21T01:05:26;98156.47;;;-4.89;51.70
43298;BME280;28892;55.640;37.532;2023-11-21T01:07:52;98162.75;;;-4.80;51.66
43298;BME280;28892;55.640;37.532;2023-11-21T01:10:18;98163.06;;;-4.85;51.63
43298;BME280;28892;55.640;37.532;2023-11-21T01:12:43;98164.47;;;-4.92;51.48
43298;BME280;28892;55.640;37.532;2023-11-21T01:15:11;98168.81;;;-4.93;51.61
43298;BME280;28892;55.640;37.532;2023-11-21T01:17:38;98166.75;;;-5.38;52.21
43298;BME280;28892;55.640;37.532;2023-11-21T01:20:04;98161.53;;;-5.12;52.16
43298;BME280;28892;55.640;37.532;2023-11-21T01:22:38;98163.22;;;-5.37;52.26
43298;BME280;28892;55.640;37.532;2023-11-21T01:25:04;98161.22;;;-5.07;51.90
43298;BME280;28892;55.640;37.532;2023-11-21T01:27:30;98162.41;;;-5.24;52.26
43298;BME280;28892;55.640;37.532;2023-11-21T01:29:57;98153.47;;;-5.20;52.23
43298;BME280;28892;55.640;37.532;2023-11-21T01:32:22;98160.78;;;-5.38;52.30
43298;BME280;28892;55.640;37.532;2023-11-21T01:34:50;98153.38;;;-5.19;52.32
43298;BME280;28892;55.640;37.532;2023-11-21T01:37:15;98155.13;;;-5.19;52.22
43298;BME280;28892;55.640;37.532;2023-11-21T01:39:43;98164.94;;;-5.11;51.90
43298;BME280;28892;55.640;37.532;2023-11-21T01:42:09;98150.78;;;-4.94;51.87
43298;BME280;28892;55.640;37.532;2023-11-21T01:44:35;98158.63;;;-5.07;51.83
43298;BME280;28892;55.640;37.532;2023-11-21T01:47:01;98157.78;;;-5.08;51.88
43298;BME280;28892;55.640;37.532;2023-11-21T01:49:31;98166.63;;;-4.99;52.13
43298;BME280;28892;55.640;37.532;2023-11-21T01:51:59;98159.16;;;-4.91;52.05
43298;BME280;28892;55.640;37.532;2023-11-21T01:54:24;98158.41;;;-4.80;51.41
43298;BME280;28892;55.640;37.532;2023-11-21T01:56:50;98162.72;;;-5.05;50.88
43298;BME280;28892;55.640;37.532;2023-11-21T01:59:19;98169.63;;;-5.29;51.48
43298;BME280;28892;55.640;37.532;2023-11-21T02:01:46;98168.06;;;-5.19;52.04
43298;BME280;28892;55.640;37.532;2023-11-21T02:04:13;98169.34;;;-5.38;51.92
43298;BME280;28892;55.640;37.532;2023-11-21T02:06:39;98170.56;;;-5.30;52.04
43298;BME280;28892;55.640;37.532;2023-11-21T02:09:05;98166.03;;;-5.40;52.02
43298;BME280;28892;55.640;37.532;2023-11-21T02:11:31;98162.81;;;-5.30;51.47
43298;BME280;28892;55.640;37.532;2023-11-21T02:14:00;98170.28;;;-5.39;51.48
43298;BME280;28892;55.640;37.532;2023-11-21T02:16:26;98161.91;;;-5.42;51.54
43298;BME280;28892;55.640;37.532;2023-11-21T02:18:52;98173.78;;;-5.27;51.74
43298;BME280;28892;55.640;37.532;2023-11-21T02:21:18;98172.19;;;-5.16;51.58
43298;BME280;28892;55.640;37.532;2023-11-21T02:23:47;98156.28;;;-5.23;51.04
43298;BME280;28892;55.640;37.532;2023-11-21T02:26:13;98167.34;;;-5.21;51.34
43298;BME280;28892;55.640;37.532;2023-11-21T02:28:39;98176.38;;;-5.40;51.58
43298;BME280;28892;55.640;37.532;2023-11-21T02:31:05;98179.72;;;-5.51;51.29
43298;BME280;28892;55.640;37.532;2023-11-21T02:33:33;98174.22;;;-5.46;51.81
43298;BME280;28892;55.640;37.532;2023-11-21T02:35:59;98166.44;;;-5.33;51.19
43298;BME280;28892;55.640;37.532;2023-11-21T02:38:25;98169.78;;;-5.57;51.13
43298;BME280;28892;55.640;37.532;2023-11-21T02:40:51;98174.63;;;-5.39;51.16
43298;BME280;28892;55.640;37.532;2023-11-21T02:43:17;98177.94;;;-5.37;51.07
43298;BME280;28892;55.640;37.532;2023-11-21T02:45:42;98174.16;;;-5.57;51.36
43298;BME280;28892;55.640;37.532;2023-11-21T02:48:08;98173.81;;;-5.53;51.48
43298;BME280;28892;55.640;37.532;2023-11-21T02:50:34;98173.06;;;-5.42;51.31
43298;BME280;28892;55.640;37.532;2023-11-21T02:53:00;98179.94;;;-5.67;50.94
43298;BME280;28892;55.640;37.532;2023-11-21T02:55:27;98194.41;;;-5.77;51.40
43298;BME280;28892;55.640;37.532;2023-11-21T02:57:53;98187.06;;;-5.57;51.48
43298;BME280;28892;55.640;37.532;2023-11-21T03:00:18;98198.75;;;-5.65;50.97
43298;BME280;28892;55.640;37.532;2023-11-21T03:02:44;98199.06;;;-5.69;51.03
43298;BME280;28892;55.640;37.532;2023-11-21T03:05:10;98194.78;;;-5.44;51.29
43298;BME280;28892;55.640;37.532;2023-11-21T03:07:37;98198.75;;;-5.52;50.73
43298;BME280;28892;55.640;37.532;2023-11-21T03:10:03;98200.50;;;-5.65;50.58
43298;BME280;28892;55.640;37.532;2023-11-21T03:12:29;98205.75;;;-5.41;51.09
43298;BME280;28892;55.640;37.532;2023-11-21T03:14:55;98206.78;;;-5.43;50.19
43298;BME280;28892;55.640;37.532;2023-11-21T03:17:22;98199.09;;;-5.32;50.76
43298;BME280;28892;55.640;37.532;2023-11-21T03:19:47;98202.00;;;-5.24;50.69
43298;BME280;28892;55.640;37.532;2023-11-21T03:22:14;98203.38;;;-5.70;49.22
43298;BME280;28892;55.640;37.532;2023-11-21T03:24:40;98196.69;;;-5.72;49.98
43298;BME280;28892;55.640;37.532;2023-11-21T03:27:05;98192.84;;;-5.67;50.21
43298;BME280;28892;55.640;37.532;2023-11-21T03:29:31;98192.63;;;-5.51;50.57
43298;BME280;28892;55.640;37.532;2023-11-21T03:31:57;98212.91;;;-5.57;49.73
43298;BME280;28892;55.640;37.532;2023-11-21T03:34:26;98210.59;;;-5.49;50.16
43298;BME280;28892;55.640;37.532;2023-11-21T03:36:53;98223.22;;;-5.44;50.05
43298;BME280;28892;55.640;37.532;2023-11-21T03:39:19;98227.22;;;-5.27;50.11
43298;BME280;28892;55.640;37.532;2023-11-21T03:41:45;98223.22;;;-5.44;49.60
43298;BME280;28892;55.640;37.532;2023-11-21T03:44:11;98224.38;;;-5.62;49.99
43298;BME280;28892;55.640;37.532;2023-11-21T03:46:37;98224.56;;;-5.78;50.14
43298;BME280;28892;55.640;37.532;2023-11-21T03:49:04;98215.88;;;-5.77;50.15
43298;BME280;28892;55.640;37.532;2023-11-21T03:51:30;98212.25;;;-5.87;50.35
43298;BME280;28892;55.640;37.532;2023-11-21T03:53:55;98220.22;;;-5.90;50.60
43298;BME280;28892;55.640;37.532;2023-11-21T03:56:21;98218.28;;;-5.73;50.57
43298;BME280;28892;55.640;37.532;2023-11-21T03:58:48;98213.84;;;-5.71;50.60
43298;BME280;28892;55.640;37.532;2023-11-21T04:01:23;98212.56;;;-5.53;50.47
43298;BME280;28892;55.640;37.532;2023-11-21T04:03:50;98223.44;;;-5.35;50.01
43298;BME280;28892;55.640;37.532;2023-11-21T04:06:16;98226.63;;;-5.70;49.73
43298;BME280;28892;55.640;37.532;2023-11-21T04:08:43;98227.78;;;-5.61;50.27
43298;BME280;28892;55.640;37.532;2023-11-21T04:11:10;98225.50;;;-5.53;50.27
43298;BME280;28892;55.640;37.532;2023-11-21T04:13:37;98217.34;;;-5.59;50.27
43298;BME280;28892;55.640;37.532;2023-11-21T04:16:05;98218.47;;;-5.51;50.22
43298;BME280;28892;55.640;37.532;2023-11-21T04:18:31;98207.31;;;-5.38;50.35
43298;BME280;28892;55.640;37.532;2023-11-21T04:20:58;98207.91;;;-5.35;50.16
43298;BME280;28892;55.640;37.532;2023-11-21T04:23:23;98213.59;;;-5.42;50.26
43298;BME280;28892;55.640;37.532;2023-11-21T04:25:49;98215.78;;;-5.75;50.85
43298;BME280;28892;55.640;37.532;2023-11-21T04:28:15;98214.03;;;-5.75;51.08
43298;BME280;28892;55.640;37.532;2023-11-21T04:30:41;98226.03;;;-5.86;51.21
43298;BME280;28892;55.640;37.532;2023-11-21T04:33:07;98219.19;;;-5.75;51.45
43298;BME280;28892;55.640;37.532;2023-11-21T04:35:34;98214.97;;;-5.50;51.11
43298;BME280;28892;55.640;37.532;2023-11-21T04:38:00;98222.47;;;-5.98;51.28
43298;BME280;28892;55.640;37.532;2023-11-21T04:40:26;98223.44;;;-5.61;51.12
43298;BME280;28892;55.640;37.532;2023-11-21T04:42:52;98234.28;;;-5.42;50.91
43298;BME280;28892;55.640;37.532;2023-11-21T04:45:18;98237.28;;;-5.49;50.81
43298;BME280;28892;55.640;37.532;2023-11-21T04:47:44;98241.22;;;-5.43;50.96
43298;BME280;28892;55.640;37.532;2023-11-21T04:50:10;98239.44;;;-5.29;50.51
43298;BME280;28892;55.640;37.532;2023-11-21T04:52:36;98246.47;;;-5.19;50.42
43298;BME280;28892;55.640;37.532;2023-11-21T04:55:02;98249.59;;;-5.52;50.50
43298;BME280;28892;55.640;37.532;2023-11-21T04:57:28;98247.19;;;-5.42;50.88
43298;BME280;28892;55.640;37.532;2023-11-21T04:59:54;98254.03;;;-5.41;50.80
43298;BME280;28892;55.640;37.532;2023-11-21T05:02:21;98251.97;;;-5.36;50.93
43298;BME280;28892;55.640;37.532;2023-11-21T05:04:48;98258.88;;;-5.24;50.94
43298;BME280;28892;55.640;37.532;2023-11-21T05:07:14;98255.66;;;-5.14;50.73
43298;BME280;28892;55.640;37.532;2023-11-21T05:09:45;98250.47;;;-5.01;50.46
43298;BME280;28892;55.640;37.532;2023-11-21T05:12:12;98261.16;;;-5.58;50.56
43298;BME280;28892;55.640;37.532;2023-11-21T05:14:40;98254.03;;;-5.41;51.03
43298;BME280;28892;55.640;37.532;2023-11-21T05:17:05;98265.50;;;-5.45;51.03
43298;BME280;28892;55.640;37.532;2023-11-21T05:19:33;98268.69;;;-5.55;51.18
43298;BME280;28892;55.640;37.532;2023-11-21T05:22:00;98257.94;;;-5.75;51.38
43298;BME280;28892;55.640;37.532;2023-11-21T05:24:26;98256.94;;;-5.85;51.97
43298;BME280;28892;55.640;37.532;2023-11-21T05:26:52;98254.03;;;-5.67;51.90
43298;BME280;28892;55.640;37.532;2023-11-21T05:29:18;98260.91;;;-5.94;52.10
43298;BME280;28892;55.640;37.532;2023-11-21T05:31:44;98256.09;;;-5.72;51.84
43298;BME280;28892;55.640;37.532;2023-11-21T05:34:10;98254.66;;;-5.51;51.40
43298;BME280;28892;55.640;37.532;2023-11-21T05:36:36;98241.94;;;-5.54;51.35
43298;BME280;28892;55.640;37.532;2023-11-21T05:39:02;98251.03;;;-5.74;51.49
43298;BME280;28892;55.640;37.532;2023-11-21T05:41:29;98254.09;;;-6.21;52.35
43298;BME280;28892;55.640;37.532;2023-11-21T05:43:54;98258.75;;;-5.87;52.15
43298;BME280;28892;55.640;37.532;2023-11-21T05:46:20;98250.19;;;-5.87;51.98
43298;BME280;28892;55.640;37.532;2023-11-21T05:48:47;98259.47;;;-5.98;52.30
43298;BME280;28892;55.640;37.532;2023-11-21T05:51:13;98259.63;;;-5.73;51.89
43298;BME280;28892;55.640;37.532;2023-11-21T05:53:39;98271.97;;;-5.92;52.23
43298;BME280;28892;55.640;37.532;2023-11-21T05:56:06;98270.34;;;-5.80;52.11
43298;BME280;28892;55.640;37.532;2023-11-21T05:58:33;98267.84;;;-5.81;52.11
43298;BME280;28892;55.640;37.532;2023-11-21T06:00:58;98267.22;;;-5.98;52.34
43298;BME280;28892;55.640;37.532;2023-11-21T06:03:25;98273.94;;;-5.95;52.46
43298;BME280;28892;55.640;37.532;2023-11-21T06:05:51;98274.69;;;-5.67;52.01
43298;BME280;28892;55.640;37.532;2023-11-21T06:08:17;98273.16;;;-5.57;51.69
43298;BME280;28892;55.640;37.532;2023-11-21T06:10:43;98277.59;;;-5.59;51.84
43298;BME280;28892;55.640;37.532;2023-11-21T06:13:09;98283.19;;;-5.39;51.62
43298;BME280;28892;55.640;37.532;2023-11-21T06:15:36;98291.75;;;-5.39;51.31
43298;BME280;28892;55.640;37.532;2023-11-21T06:18:02;98288.88;;;-5.47;51.38
43298;BME280;28892;55.640;37.532;2023-11-21T06:20:28;98288.88;;;-5.34;51.58
43298;BME280;28892;55.640;37.532;2023-11-21T06:22:54;98284.72;;;-5.24;51.40
43298;BME280;28892;55.640;37.532;2023-11-21T06:25:20;98292.88;;;-5.17;51.24
43298;BME280;28892;55.640;37.532;2023-11-21T06:27:47;98291.75;;;-5.13;51.32
43298;BME280;28892;55.640;37.532;2023-11-21T06:30:13;98295.38;;;-5.15;51.41
43298;BME280;28892;55.640;37.532;2023-11-21T06:32:40;98298.06;;;-5.17;51.53
43298;BME280;28892;55.640;37.532;2023-11-21T06:35:07;98295.28;;;-5.14;51.68
43298;BME280;28892;55.640;37.532;2023-11-21T06:37:35;98290.06;;;-5.01;51.59
43298;BME280;28892;55.640;37.532;2023-11-21T06:40:01;98303.94;;;-5.15;51.81
43298;BME280;28892;55.640;37.532;2023-11-21T06:42:29;98295.78;;;-5.22;52.02
43298;BME280;28892;55.640;37.532;2023-11-21T06:44:55;98297.03;;;-5.14;52.19
43298;BME280;28892;55.640;37.532;2023-11-21T06:47:25;98295.81;;;-5.35;52.27
43298;BME280;28892;55.640;37.532;2023-11-21T06:49:51;98301.81;;;-5.47;52.70
43298;BME280;28892;55.640;37.532;2023-11-21T06:52:17;98298.09;;;-5.30;52.52
43298;BME280;28892;55.640;37.532;2023-11-21T06:54:43;98291.00;;;-5.15;52.20
43298;BME280;28892;55.640;37.532;2023-11-21T06:57:09;98293.72;;;-5.03;52.01
43298;BME280;28892;55.640;37.532;2023-11-21T06:59:35;98296.84;;;-5.24;52.16
43298;BME280;28892;55.640;37.532;2023-11-21T07:02:01;98297.16;;;-5.29;52.44
43298;BME280;28892;55.640;37.532;2023-11-21T07:04:27;98296.53;;;-5.20;52.42
43298;BME280;28892;55.640;37.532;2023-11-21T07:06:53;98297.13;;;-5.03;52.06
43298;BME280;28892;55.640;37.532;2023-11-21T07:09:20;98295.91;;;-5.36;52.79
43298;BME280;28892;55.640;37.532;2023-11-21T07:11:51;98300.56;;;-5.41;53.37
43298;BME280;28892;55.640;37.532;2023-11-21T07:14:17;98295.91;;;-5.23;52.64
43298;BME280;28892;55.640;37.532;2023-11-21T07:16:45;98304.69;;;-5.13;52.42
43298;BME280;28892;55.640;37.532;2023-11-21T07:19:12;98301.16;;;-5.25;52.25
43298;BME280;28892;55.640;37.532;2023-11-21T07:21:38;98305.72;;;-5.15;52.17
43298;BME280;28892;55.640;37.532;2023-11-21T07:24:05;98319.59;;;-5.29;52.62
43298;BME280;28892;55.640;37.532;2023-11-21T07:26:31;98307.69;;;-5.19;52.63
43298;BME280;28892;55.640;37.532;2023-11-21T07:28:59;98311.22;;;-5.07;52.22
43298;BME280;28892;55.640;37.532;2023-11-21T07:31:25;98307.38;;;-5.14;51.64
43298;BME280;28892;55.640;37.532;2023-11-21T07:33:51;98313.03;;;-4.96;51.81
43298;BME280;28892;55.640;37.532;2023-11-21T07:36:17;98313.88;;;-5.09;51.54
43298;BME280;28892;55.640;37.532;2023-11-21T07:38:44;98315.13;;;-5.14;51.85
43298;BME280;28892;55.640;37.532;2023-11-21T07:41:10;98310.25;;;-5.32;52.46
43298;BME280;28892;55.640;37.532;2023-11-21T07:43:39;98313.81;;;-5.46;52.64
43298;BME280;28892;55.640;37.532;2023-11-21T07:46:04;98320.00;;;-5.23;52.33
43298;BME280;28892;55.640;37.532;2023-11-21T07:48:30;98309.03;;;-5.13;52.28
43298;BME280;28892;55.640;37.532;2023-11-21T07:50:57;98320.72;;;-4.95;52.13
43298;BME280;28892;55.640;37.532;2023-11-21T07:53:26;98303.06;;;-4.77;51.36
43298;BME280;28892;55.640;37.532;2023-11-21T07:55:54;98308.19;;;-5.01;51.29
43298;BME280;28892;55.640;37.532;2023-11-21T07:58:20;98308.00;;;-4.98;51.47
43298;BME280;28892;55.640;37.532;2023-11-21T08:00:46;98303.31;;;-4.93;51.56
43298;BME280;28892;55.640;37.532;2023-11-21T08:03:15;98306.78;;;-5.31;51.74
43298;BME280;28892;55.640;37.532;2023-11-21T08:05:42;98296.31;;;-5.16;52.06
43298;BME280;28892;55.640;37.532;2023-11-21T08:08:08;98300.13;;;-5.35;52.43
43298;BME280;28892;55.640;37.532;2023-11-21T08:10:34;98312.84;;;-5.32;52.71
43298;BME280;28892;55.640;37.532;2023-11-21T08:13:04;98304.13;;;-5.70;53.20
43298;BME280;28892;55.640;37.532;2023-11-21T08:15:30;98309.13;;;-5.41;52.94
43298;BME280;28892;55.640;37.532;2023-11-21T08:17:58;98305.19;;;-5.47;53.09
43298;BME280;28892;55.640;37.532;2023-11-21T08:20:24;98301.88;;;-5.62;53.43
43298;BME280;28892;55.640;37.532;2023-11-21T08:22:50;98301.06;;;-5.62;53.61
43298;BME280;28892;55.640;37.532;2023-11-21T08:25:17;98297.34;;;-5.32;52.89
43298;BME280;28892;55.640;37.532;2023-11-21T08:27:45;98302.19;;;-5.27;52.47
43298;BME280;28892;55.640;37.532;2023-11-21T08:30:11;98294.44;;;-5.14;52.28
43298;BME280;28892;55.640;37.532;2023-11-21T08:32:38;98292.88;;;-5.04;52.33
43298;BME280;28892;55.640;37.532;2023-11-21T08:35:03;98292.25;;;-4.95;52.09
43298;BME280;28892;55.640;37.532;2023-11-21T08:37:30;98290.19;;;-5.02;51.47
43298;BME280;28892;55.640;37.532;2023-11-21T08:39:58;98286.16;;;-5.07;51.74
43298;BME280;28892;55.640;37.532;2023-11-21T08:42:27;98293.91;;;-4.94;52.04
43298;BME280;28892;55.640;37.532;2023-11-21T08:44:55;98285.28;;;-4.81;51.52
43298;BME280;28892;55.640;37.532;2023-11-21T08:47:23;98292.22;;;-4.82;51.70
43298;BME280;28892;55.640;37.532;2023-11-21T08:49:50;98291.31;;;-5.07;50.99
43298;BME280;28892;55.640;37.532;2023-11-21T08:52:18;98288.72;;;-4.94;51.55
43298;BME280;28892;55.640;37.532;2023-11-21T08:54:48;98285.91;;;-4.91;51.35
43298;BME280;28892;55.640;37.532;2023-11-21T08:57:14;98282.91;;;-4.47;51.00
43298;BME280;28892;55.640;37.532;2023-11-21T08:59:44;98289.00;;;-4.48;50.85
43298;BME280;28892;55.640;37.532;2023-11-21T09:02:10;98302.72;;;-4.59;50.39
43298;BME280;28892;55.640;37.532;2023-11-21T09:04:36;98304.53;;;-4.48;51.05
43298;BME280;28892;55.640;37.532;2023-11-21T09:07:01;98294.97;;;-4.35;51.17
43298;BME280;28892;55.640;37.532;2023-11-21T09:09:27;98305.03;;;-4.18;50.74
43298;BME280;28892;55.640;37.532;2023-11-21T09:11:53;98302.34;;;-4.17;50.14
43298;BME280;28892;55.640;37.532;2023-11-21T09:14:19;98300.41;;;-4.26;49.87
43298;BME280;28892;55.640;37.532;2023-11-21T09:16:44;98305.59;;;-4.26;49.95
43298;BME280;28892;55.640;37.532;2023-11-21T09:19:11;98301.38;;;-4.27;49.90
43298;BME280;28892;55.640;37.532;2023-11-21T09:21:40;98305.00;;;-4.30;49.96
43298;BME280;28892;55.640;37.532;2023-11-21T09:24:06;98322.31;;;-4.30;49.51
43298;BME280;28892;55.640;37.532;2023-11-21T09:26:34;98313.75;;;-4.19;49.85
43298;BME280;28892;55.640;37.532;2023-11-21T09:29:00;98304.66;;;-4.25;49.68
43298;BME280;28892;55.640;37.532;2023-11-21T09:31:27;98316.84;;;-4.14;49.45
43298;BME280;28892;55.640;37.532;2023-11-21T09:33:53;98303.53;;;-4.21;49.40
43298;BME280;28892;55.640;37.532;2023-11-21T09:36:19;98309.63;;;-4.46;49.28
43298;BME280;28892;55.640;37.532;2023-11-21T09:38:47;98318.50;;;-4.75;49.68
43298;BME280;28892;55.640;37.532;2023-11-21T09:41:18;98318.66;;;-4.52;50.22
43298;BME280;28892;55.640;37.532;2023-11-21T09:43:46;98328.34;;;-4.80;50.28
43298;BME280;28892;55.640;37.532;2023-11-21T09:46:13;98322.81;;;-4.63;50.38
43298;BME280;28892;55.640;37.532;2023-11-21T09:48:47;98325.97;;;-4.46;50.40
43298;BME280;28892;55.640;37.532;2023-11-21T09:51:16;98322.28;;;-4.55;50.36
43298;BME280;28892;55.640;37.532;2023-11-21T09:53:45;98319.53;;;-4.40;50.45
43298;BME280;28892;55.640;37.532;2023-11-21T09:56:13;98329.19;;;-4.55;50.41
43298;BME280;28892;55.640;37.532;2023-11-21T09:58:42;98324.38;;;-4.36;50.50
43298;BME280;28892;55.640;37.532;2023-11-21T10:01:08;98336.06;;;-4.67;50.76
43298;BME280;28892;55.640;37.532;2023-11-21T10:03:37;98337.00;;;-4.68;51.27
43298;BME280;28892;55.640;37.532;2023-11-21T10:06:04;98343.06;;;-4.94;51.63
43298;BME280;28892;55.640;37.532;2023-11-21T10:08:31;98347.25;;;-4.67;51.55
43298;BME280;28892;55.640;37.532;2023-11-21T10:10:57;98339.75;;;-4.45;51.19
43298;BME280;28892;55.640;37.532;2023-11-21T10:13:25;98345.16;;;-4.24;50.72
43298;BME280;28892;55.640;37.532;2023-11-21T10:15:52;98343.91;;;-4.43;50.72
43298;BME280;28892;55.640;37.532;2023-11-21T10:18:18;98340.50;;;-4.19;50.67
43298;BME280;28892;55.640;37.532;2023-11-21T10:20:44;98342.88;;;-4.53;50.59
43298;BME280;28892;55.640;37.532;2023-11-21T10:23:20;98335.38;;;-4.45;50.92
43298;BME280;28892;55.640;37.532;2023-11-21T10:25:48;98340.91;;;-4.25;51.06
43298;BME280;28892;55.640;37.532;2023-11-21T10:28:16;98329.28;;;-4.19;50.83
43298;BME280;28892;55.640;37.532;2023-11-21T10:30:44;98335.69;;;-4.37;50.27
43298;BME280;28892;55.640;37.532;2023-11-21T10:33:10;98337.88;;;-4.43;51.29
43298;BME280;28892;55.640;37.532;2023-11-21T10:35:42;98337.25;;;-4.47;50.97
43298;BME280;28892;55.640;37.532;2023-11-21T10:38:08;98329.63;;;-4.49;50.93
43298;BME280;28892;55.640;37.532;2023-11-21T10:40:38;98333.63;;;-4.44;51.35
43298;BME280;28892;55.640;37.532;2023-11-21T10:43:08;98339.88;;;-4.23;50.97
43298;BME280;28892;55.640;37.532;2023-11-21T10:45:35;98338.78;;;-4.31;50.79
43298;BME280;28892;55.640;37.532;2023-11-21T10:48:06;98340.13;;;-4.39;50.93
43298;BME280;28892;55.640;37.532;2023-11-21T10:50:36;98331.97;;;-4.45;50.88
43298;BME280;28892;55.640;37.532;2023-11-21T10:53:09;98338.28;;;-4.74;51.88
43298;BME280;28892;55.640;37.532;2023-11-21T10:55:35;98340.94;;;-4.63;52.38
43298;BME280;28892;55.640;37.532;2023-11-21T10:58:02;98336.63;;;-4.38;51.97
43298;BME280;28892;55.640;37.532;2023-11-21T11:00:29;98326.69;;;-4.19;51.61
43298;BME280;28892;55.640;37.532;2023-11-21T11:02:55;98334.75;;;-4.36;51.66
43298;BME280;28892;55.640;37.532;2023-11-21T11:05:23;98352.75;;;-4.34;51.94
43298;BME280;28892;55.640;37.532;2023-11-21T11:08:08;98344.59;;;-4.41;51.69
43298;BME280;28892;55.640;37.532;2023-11-21T11:10:34;98341.34;;;-4.56;51.57
43298;BME280;28892;55.640;37.532;2023-11-21T11:13:01;98347.16;;;-4.78;52.16
43298;BME280;28892;55.640;37.532;2023-11-21T11:15:27;98339.31;;;-4.77;51.49
43298;BME280;28892;55.640;37.532;2023-11-21T11:17:54;98348.31;;;-4.95;51.94
43298;BME280;28892;55.640;37.532;2023-11-21T11:20:22;98348.94;;;-5.05;51.99
43298;BME280;28892;55.640;37.532;2023-11-21T11:35:57;98357.44;;;-5.41;52.58
43298;BME280;28892;55.640;37.532;2023-11-21T11:38:30;98355.06;;;-5.19;52.01
43298;BME280;28892;55.640;37.532;2023-11-21T11:41:04;98365.03;;;-5.53;52.01
43298;BME280;28892;55.640;37.532;2023-11-21T11:43:31;98362.97;;;-5.61;52.66
43298;BME280;28892;55.640;37.532;2023-11-21T11:46:10;98369.22;;;-5.37;52.32
43298;BME280;28892;55.640;37.532;2023-11-21T11:48:43;98379.16;;;-5.05;51.42
43298;BME280;28892;55.640;37.532;2023-11-21T11:51:12;98372.53;;;-4.83;51.60
43298;BME280;28892;55.640;37.532;2023-11-21T11:53:46;98359.88;;;-4.62;51.05
43298;BME280;28892;55.640;37.532;2023-11-21T11:56:23;98365.88;;;-4.49;50.77
43298;BME280;28892;55.640;37.532;2023-11-21T11:58:52;98369.09;;;-4.84;50.88
43298;BME280;28892;55.640;37.532;2023-11-21T12:01:19;98374.19;;;-4.82;50.99
43298;BME280;28892;55.640;37.532;2023-11-21T12:04:14;98374.69;;;-4.64;51.29
43298;BME280;28892;55.640;37.532;2023-11-21T12:06:34;98385.25;;;-4.93;51.14
43298;BME280;28892;55.640;37.532;2023-11-21T12:09:03;98388.69;;;-4.93;51.04
43298;BME280;28892;55.640;37.532;2023-11-21T12:11:32;98395.84;;;-5.09;50.97
43298;BME280;28892;55.640;37.532;2023-11-21T12:13:58;98385.88;;;-5.28;51.20
43298;BME280;28892;55.640;37.532;2023-11-21T12:16:29;98390.53;;;-5.21;51.19
43298;BME280;28892;55.640;37.532;2023-11-21T12:18:58;98392.81;;;-5.69;51.28
43298;BME280;28892;55.640;37.532;2023-11-21T12:21:24;98391.97;;;-5.29;51.36
43298;BME280;28892;55.640;37.532;2023-11-21T12:23:50;98397.59;;;-4.97;52.02
43298;BME280;28892;55.640;37.532;2023-11-21T12:26:16;98394.66;;;-4.66;51.47
43298;BME280;28892;55.640;37.532;2023-11-21T12:28:43;98394.56;;;-4.91;51.07
43298;BME280;28892;55.640;37.532;2023-11-21T12:31:09;98393.72;;;-4.65;51.61
43298;BME280;28892;55.640;37.532;2023-11-21T12:33:36;98389.94;;;-4.22;51.79
43298;BME280;28892;55.640;37.532;2023-11-21T12:36:02;98389.66;;;-3.82;51.02
43298;BME280;28892;55.640;37.532;2023-11-21T12:38:34;98386.56;;;-3.62;50.85
43298;BME280;28892;55.640;37.532;2023-11-21T12:41:03;98397.97;;;-3.65;49.53
43298;BME280;28892;55.640;37.532;2023-11-21T12:43:29;98398.13;;;-3.55;50.61
43298;BME280;28892;55.640;37.532;2023-11-21T12:46:08;98395.97;;;-3.26;50.02
43298;BME280;28892;55.640;37.532;2023-11-21T12:48:41;98397.91;;;-3.05;49.20
43298;BME280;28892;55.640;37.532;2023-11-21T12:51:14;98388.97;;;-3.01;49.17
43298;BME280;28892;55.640;37.532;2023-11-21T12:53:41;98389.38;;;-3.30;48.60
43298;BME280;28892;55.640;37.532;2023-11-21T12:56:10;98400.16;;;-3.47;48.90
43298;BME280;28892;55.640;37.532;2023-11-21T12:58:37;98396.66;;;-3.46;49.03
43298;BME280;28892;55.640;37.532;2023-11-21T13:01:04;98383.56;;;-3.33;49.69
43298;BME280;28892;55.640;37.532;2023-11-21T13:03:30;98388.91;;;-3.35;49.00